createdAt,value
2022-11-30T00:01:23.306Z,102117.59
2022-11-30T00:03:54.854Z,102110.84
2022-11-30T00:06:24.948Z,102113.16
2022-11-30T00:08:57.166Z,102110.56
2022-11-30T00:11:26.669Z,102112.22
2022-11-30T00:13:53.676Z,102118.06
2022-11-30T00:16:21.573Z,102103.63
2022-11-30T00:18:48.639Z,102111.25
2022-11-30T00:21:16.318Z,102104.13
2022-11-30T00:23:45.623Z,102105.88
2022-11-30T00:26:17.323Z,102104.84
2022-11-30T00:28:47.869Z,102101.44
2022-11-30T00:31:18.416Z,102102.13
2022-11-30T00:33:45.681Z,102107.66
2022-11-30T00:36:19.122Z,102102.56
2022-11-30T00:38:46.940Z,102104.63
2022-11-30T00:41:14.885Z,102102.66
2022-11-30T00:43:41.954Z,102104.28
2022-11-30T00:46:09.781Z,102107.94
2022-11-30T00:48:38.611Z,102112.03
2022-11-30T00:51:07.096Z,102108.50
2022-11-30T00:53:34.162Z,102105.81
2022-11-30T00:56:01.199Z,102105.28
2022-11-30T00:58:28.112Z,102109.72
2022-11-30T01:00:55.085Z,102111.31
2022-11-30T01:03:22.085Z,102110.13
2022-11-30T01:05:48.991Z,102106.97
2022-11-30T01:08:16.196Z,102102.84
2022-11-30T01:10:44.502Z,102111.31
2022-11-30T01:13:14.743Z,102106.19
2022-11-30T01:15:44.934Z,102107.84
2022-11-30T01:18:11.993Z,102097.38
2022-11-30T01:20:43.519Z,102108.81
2022-11-30T01:23:13.332Z,102101.56
2022-11-30T01:25:40.298Z,102102.84
2022-11-30T01:28:09.613Z,102101.09
2022-11-30T01:30:39.655Z,102097.25
2022-11-30T01:33:07.277Z,102103.16
2022-11-30T01:35:37.741Z,102105.50
2022-11-30T01:38:04.639Z,102102.25
2022-11-30T01:40:32.311Z,102100.06
2022-11-30T01:42:59.211Z,102103.50
2022-11-30T01:45:26.221Z,102101.81
2022-11-30T01:47:56.907Z,102103.81
2022-11-30T01:50:39.988Z,102100.41
2022-11-30T01:53:12.445Z,102109.56
2022-11-30T01:55:48.601Z,102102.06
2022-11-30T01:58:30.495Z,102104.91
2022-11-30T02:01:00.049Z,102103.50
2022-11-30T02:03:43.876Z,102102.50
2022-11-30T02:06:14.671Z,102104.16
2022-11-30T02:08:49.745Z,102096.75
2022-11-30T02:11:21.595Z,102106.06
2022-11-30T02:14:05.719Z,102106.34
2022-11-30T02:17:08.359Z,102106.63
2022-11-30T02:20:22.690Z,102108.41
2022-11-30T02:23:10.464Z,102114.97
2022-11-30T02:26:16.233Z,102112.31
2022-11-30T02:29:21.280Z,102122.94
2022-11-30T02:32:15.101Z,102120.81
2022-11-30T02:34:43.716Z,102117.28
2022-11-30T02:37:14.584Z,102113.28
2022-11-30T02:39:42.806Z,102124.16
2022-11-30T02:42:14.639Z,102114.81
2022-11-30T02:44:52.261Z,102128.56
2022-11-30T02:47:28.300Z,102127.16
2022-11-30T02:50:13.619Z,102136.84
2022-11-30T02:52:44.068Z,102136.13
2022-11-30T02:55:18.076Z,102131.56
2022-11-30T02:57:45.249Z,102130.16
2022-11-30T03:00:14.414Z,102141.38
2022-11-30T03:02:44.995Z,102138.25
2022-11-30T03:05:14.420Z,102142.25
2022-11-30T03:07:41.353Z,102131.75
2022-11-30T03:10:09.478Z,102141.59
2022-11-30T03:12:36.726Z,102131.91
2022-11-30T03:15:07.622Z,102131.91
2022-11-30T03:17:37.940Z,102128.53
2022-11-30T03:20:05.872Z,102121.59
2022-11-30T03:22:32.841Z,102125.16
2022-11-30T03:24:59.747Z,102132.53
2022-11-30T03:27:26.700Z,102126.31
2022-11-30T03:29:56.621Z,102129.13
2022-11-30T03:32:25.181Z,102134.84
2022-11-30T03:34:52.260Z,102132.06
2022-11-30T03:37:19.251Z,102132.75
2022-11-30T03:39:49.672Z,102137.38
2022-11-30T03:42:19.373Z,102143.31
2022-11-30T03:44:46.454Z,102132.97
2022-11-30T03:47:16.516Z,102137.97
2022-11-30T03:49:43.408Z,102141.78
2022-11-30T03:52:13.108Z,102146.66
2022-11-30T03:54:40.067Z,102139.94
2022-11-30T03:57:06.958Z,102138.66
2022-11-30T03:59:33.906Z,102136.09
2022-11-30T04:02:01.004Z,102133.72
2022-11-30T04:04:27.991Z,102138.84
2022-11-30T04:06:54.915Z,102135.59
2022-11-30T04:09:21.833Z,102136.75
2022-11-30T04:11:48.769Z,102142.22
2022-11-30T04:14:15.739Z,102143.78
2022-11-30T04:16:42.700Z,102134.44
2022-11-30T04:19:09.665Z,102140.91
2022-11-30T04:21:36.693Z,102135.53
2022-11-30T04:24:03.848Z,102134.56
2022-11-30T04:26:30.751Z,102132.06
2022-11-30T04:28:57.648Z,102127.84
2022-11-30T04:31:24.677Z,102133.66
2022-11-30T04:33:54.620Z,102127.72
2022-11-30T04:36:24.946Z,102123.44
2022-11-30T04:38:51.872Z,102129.91
2022-11-30T04:41:18.799Z,102126.06
2022-11-30T04:43:45.766Z,102128.69
2022-11-30T04:46:12.914Z,102144.28
2022-11-30T04:48:39.941Z,102139.72
2022-11-30T04:51:08.893Z,102141.44
2022-11-30T04:53:37.633Z,102142.63
2022-11-30T04:56:09.943Z,102137.50
2022-11-30T04:58:38.793Z,102139.72
2022-11-30T05:01:06.275Z,102135.34
2022-11-30T05:03:33.204Z,102147.97
2022-11-30T05:06:00.201Z,102136.75
2022-11-30T05:08:27.261Z,102137.97
2022-11-30T05:10:55.389Z,102144.13
2022-11-30T05:13:24.281Z,102145.47
2022-11-30T05:15:52.480Z,102139.47
2022-11-30T05:18:20.044Z,102135.97
2022-11-30T05:20:53.954Z,102145.41
2022-11-30T05:23:21.965Z,102140.47
2022-11-30T05:25:51.493Z,102137.78
2022-11-30T05:28:19.366Z,102146.81
2022-11-30T05:30:46.708Z,102150.41
2022-11-30T05:33:16.472Z,102150.44
2022-11-30T05:35:43.721Z,102150.94
2022-11-30T05:38:12.912Z,102153.75
2022-11-30T05:40:41.637Z,102150.00
2022-11-30T05:43:12.846Z,102149.72
2022-11-30T05:45:41.545Z,102163.75
2022-11-30T05:48:11.364Z,102176.19
2022-11-30T05:50:41.608Z,102185.13
2022-11-30T05:53:11.123Z,102180.53
2022-11-30T05:55:38.331Z,102172.09
2022-11-30T05:58:07.879Z,102176.47
2022-11-30T06:00:34.815Z,102174.78
2022-11-30T06:03:01.887Z,102166.50
2022-11-30T06:05:38.445Z,102165.31
2022-11-30T06:08:08.798Z,102179.53
2022-11-30T06:10:39.866Z,102177.66
2022-11-30T06:13:09.743Z,102177.91
2022-11-30T06:15:41.162Z,102173.88
2022-11-30T06:18:10.069Z,102177.00
2022-11-30T06:20:37.409Z,102170.34
2022-11-30T06:23:04.368Z,102164.16
2022-11-30T06:25:31.630Z,102174.22
2022-11-30T06:28:00.609Z,102175.28
2022-11-30T06:30:30.720Z,102177.09
2022-11-30T06:33:01.210Z,102177.00
2022-11-30T06:35:28.312Z,102182.69
2022-11-30T06:37:58.481Z,102173.22
2022-11-30T06:40:25.936Z,102185.19
2022-11-30T06:42:56.460Z,102180.03
2022-11-30T06:45:23.425Z,102190.03
2022-11-30T06:47:59.437Z,102183.38
2022-11-30T06:50:26.626Z,102186.00
2022-11-30T06:52:56.492Z,102205.13
2022-11-30T06:55:33.854Z,102199.38
2022-11-30T06:58:14.648Z,102197.78
2022-11-30T07:00:42.855Z,102200.47
2022-11-30T07:03:11.875Z,102200.78
2022-11-30T07:05:45.380Z,102203.03
2022-11-30T07:08:21.214Z,102205.16
2022-11-30T07:10:51.232Z,102207.41
2022-11-30T07:13:20.369Z,102211.34
2022-11-30T07:15:54.434Z,102213.59
2022-11-30T07:18:31.910Z,102214.47
2022-11-30T07:21:07.692Z,102219.50
2022-11-30T07:23:56.634Z,102228.59
2022-11-30T07:26:25.421Z,102227.72
2022-11-30T07:28:55.341Z,102235.88
2022-11-30T07:31:33.770Z,102242.66
2022-11-30T07:34:06.982Z,102251.44
2022-11-30T07:36:35.485Z,102250.97
2022-11-30T07:39:03.761Z,102251.81
2022-11-30T07:41:31.469Z,102257.22
2022-11-30T07:43:58.494Z,102253.06
2022-11-30T07:46:26.072Z,102255.41
2022-11-30T07:48:53.057Z,102259.50
2022-11-30T07:51:22.524Z,102270.47
2022-11-30T07:53:55.721Z,102257.84
2022-11-30T07:56:23.796Z,102266.91
2022-11-30T07:58:58.280Z,102259.28
2022-11-30T08:01:29.278Z,102262.50
2022-11-30T08:03:59.805Z,102271.91
2022-11-30T08:06:31.146Z,102278.06
2022-11-30T08:09:04.039Z,102278.59
2022-11-30T08:11:34.791Z,102272.25
2022-11-30T08:14:02.678Z,102279.28
2022-11-30T08:16:36.332Z,102278.03
2022-11-30T08:19:04.108Z,102282.09
2022-11-30T08:21:34.156Z,102295.09
2022-11-30T08:24:01.187Z,102281.13
2022-11-30T08:26:37.134Z,102287.19
2022-11-30T08:29:04.062Z,102285.69
2022-11-30T08:31:36.350Z,102284.81
2022-11-30T08:34:10.941Z,102285.34
2022-11-30T08:36:39.871Z,102286.81
2022-11-30T08:39:09.058Z,102287.47
2022-11-30T08:41:36.563Z,102282.00
2022-11-30T08:44:03.719Z,102292.56
2022-11-30T08:52:20.887Z,102290.44
2022-11-30T08:54:55.112Z,102295.94
2022-11-30T08:57:22.520Z,102300.94
2022-11-30T08:59:49.981Z,102298.38
2022-11-30T09:02:19.687Z,102298.84
2022-11-30T09:04:49.228Z,102301.66
2022-11-30T09:07:16.600Z,102305.56
2022-11-30T09:09:43.552Z,102303.31
2022-11-30T09:12:10.639Z,102315.81
2022-11-30T09:14:37.724Z,102307.84
2022-11-30T09:17:10.786Z,102311.78
2022-11-30T09:19:37.735Z,102310.16
2022-11-30T09:22:04.652Z,102312.84
2022-11-30T09:24:31.600Z,102313.09
2022-11-30T09:26:58.492Z,102303.47
2022-11-30T09:29:25.555Z,102314.19
2022-11-30T09:31:52.652Z,102311.63
2022-11-30T09:34:19.677Z,102316.63
2022-11-30T09:36:46.653Z,102314.66
2022-11-30T09:39:13.715Z,102317.66
2022-11-30T09:42:02.759Z,102310.34
2022-11-30T09:45:02.392Z,102301.59
2022-11-30T09:47:49.378Z,102318.84
2022-11-30T09:50:25.191Z,102310.03
2022-11-30T09:52:59.033Z,102315.81
2022-11-30T09:55:34.732Z,102310.38
2022-11-30T09:58:04.443Z,102310.69
2022-11-30T10:00:33.037Z,102316.25
2022-11-30T10:03:04.657Z,102313.38
2022-11-30T10:05:50.178Z,102309.22
2022-11-30T10:08:35.307Z,102315.91
2022-11-30T10:11:42.599Z,102300.63
2022-11-30T10:14:46.250Z,102300.50
2022-11-30T10:17:46.401Z,102304.91
2022-11-30T10:21:12.590Z,102313.50
2022-11-30T10:23:45.716Z,102300.88
2022-11-30T10:26:32.461Z,102310.03
2022-11-30T10:29:19.369Z,102311.72
2022-11-30T10:31:57.756Z,102307.56
2022-11-30T10:34:36.150Z,102307.69
2022-11-30T10:37:13.458Z,102316.28
2022-11-30T10:40:00.850Z,102312.53
2022-11-30T10:42:47.094Z,102316.00
2022-11-30T10:45:22.165Z,102329.75
2022-11-30T10:48:14.288Z,102319.34
2022-11-30T10:50:42.188Z,102315.72
2022-11-30T10:53:13.471Z,102317.00
2022-11-30T10:55:44.866Z,102308.09
2022-11-30T10:58:38.445Z,102315.03
2022-11-30T11:01:07.975Z,102313.06
2022-11-30T11:03:35.605Z,102311.56
2022-11-30T11:06:15.753Z,102307.81
2022-11-30T11:08:45.609Z,102303.03
2022-11-30T11:11:36.520Z,102306.78
2022-11-30T11:14:33.654Z,102313.69
2022-11-30T11:17:21.989Z,102310.44
2022-11-30T11:19:51.499Z,102305.19
2022-11-30T11:22:24.891Z,102307.72
2022-11-30T11:25:16.244Z,102307.75
2022-11-30T11:27:45.152Z,102305.53
2022-11-30T11:30:27.487Z,102315.84
2022-11-30T11:33:12.308Z,102321.69
2022-11-30T11:35:51.267Z,102315.88
2022-11-30T11:38:50.319Z,102314.47
2022-11-30T11:41:36.321Z,102316.63
2022-11-30T11:44:03.210Z,102310.22
2022-11-30T11:46:35.546Z,102292.56
2022-11-30T11:49:21.493Z,102294.72
2022-11-30T11:52:13.930Z,102291.13
2022-11-30T11:55:05.355Z,102277.81
2022-11-30T11:57:55.095Z,102285.44
2022-11-30T12:00:25.381Z,102294.38
2022-11-30T12:03:04.930Z,102297.28
2022-11-30T12:05:38.367Z,102297.00
2022-11-30T12:08:38.628Z,102290.34
2022-11-30T12:11:42.241Z,102288.09
2022-11-30T12:14:16.639Z,102287.72
2022-11-30T12:17:08.540Z,102284.50
2022-11-30T12:20:13.878Z,102289.75
2022-11-30T12:23:15.655Z,102293.25
2022-11-30T12:26:20.069Z,102288.31
2022-11-30T12:29:40.249Z,102301.00
2022-11-30T12:32:13.197Z,102298.28
2022-11-30T12:34:55.086Z,102300.75
2022-11-30T12:37:47.498Z,102299.38
2022-11-30T12:40:29.767Z,102292.19
2022-11-30T12:43:35.597Z,102303.25
2022-11-30T12:46:38.877Z,102308.38
2022-11-30T12:49:36.531Z,102304.78
2022-11-30T12:52:18.628Z,102299.25
2022-11-30T12:55:07.134Z,102306.03
2022-11-30T12:58:00.935Z,102308.13
2022-11-30T13:00:48.145Z,102303.81
2022-11-30T13:03:40.549Z,102303.94
2022-11-30T13:06:44.650Z,102306.19
2022-11-30T13:09:20.227Z,102307.81
2022-11-30T13:11:55.331Z,102297.13
2022-11-30T13:14:25.336Z,102299.94
2022-11-30T13:17:04.090Z,102304.63
2022-11-30T13:20:07.641Z,102297.56
2022-11-30T13:22:52.522Z,102304.38
2022-11-30T13:25:59.696Z,102308.09
2022-11-30T13:28:50.355Z,102306.72
2022-11-30T13:31:27.968Z,102308.81
2022-11-30T13:33:54.916Z,102311.16
2022-11-30T13:36:44.803Z,102309.78
2022-11-30T13:39:14.636Z,102316.16
2022-11-30T13:41:44.695Z,102313.09
2022-11-30T13:44:35.078Z,102314.63
2022-11-30T13:47:21.426Z,102327.41
2022-11-30T13:50:00.044Z,102327.94
2022-11-30T13:53:25.576Z,102330.59
2022-11-30T13:56:01.037Z,102335.69
2022-11-30T13:58:32.069Z,102336.13
2022-11-30T14:01:26.476Z,102337.94
2022-11-30T14:04:18.574Z,102346.13
2022-11-30T14:06:55.524Z,102336.69
2022-11-30T14:09:47.094Z,102335.31
2022-11-30T14:12:36.871Z,102336.06
2022-11-30T14:15:31.869Z,102343.59
2022-11-30T14:17:59.197Z,102332.13
2022-11-30T14:20:37.500Z,102339.78
2022-11-30T14:23:30.537Z,102334.50
2022-11-30T14:26:10.298Z,102334.34
2022-11-30T14:29:04.170Z,102338.81
2022-11-30T14:31:41.936Z,102342.63
2022-11-30T14:34:18.077Z,102350.06
2022-11-30T14:36:59.618Z,102341.63
2022-11-30T14:39:42.017Z,102339.56
2022-11-30T14:42:28.113Z,102339.47
2022-11-30T14:44:56.401Z,102335.84
2022-11-30T14:47:32.540Z,102323.91
2022-11-30T14:50:02.836Z,102328.91
2022-11-30T14:52:58.036Z,102333.31
2022-11-30T14:55:46.242Z,102337.41
2022-11-30T14:58:29.621Z,102344.13
2022-11-30T15:00:57.438Z,102338.34
2022-11-30T15:03:28.765Z,102343.50
2022-11-30T15:06:03.525Z,102350.88
2022-11-30T15:08:44.272Z,102343.00
2022-11-30T15:11:13.771Z,102342.38
2022-11-30T15:13:51.132Z,102345.75
2022-11-30T15:16:28.398Z,102343.75
2022-11-30T15:18:58.062Z,102335.88
2022-11-30T15:21:34.123Z,102339.59
2022-11-30T15:24:02.389Z,102337.38
2022-11-30T15:26:54.843Z,102336.53
2022-11-30T15:29:53.098Z,102325.00
2022-11-30T15:32:23.915Z,102321.72
2022-11-30T15:34:57.843Z,102333.31
2022-11-30T15:37:34.938Z,102343.78
2022-11-30T15:40:06.004Z,102347.28
2022-11-30T15:42:44.030Z,102350.09
2022-11-30T15:45:24.465Z,102351.50
2022-11-30T15:47:53.088Z,102339.44
2022-11-30T15:50:41.121Z,102343.66
2022-11-30T15:53:47.053Z,102351.41
2022-11-30T15:56:25.980Z,102344.25
2022-11-30T15:59:14.711Z,102347.81
2022-11-30T16:02:18.137Z,102348.13
2022-11-30T16:04:57.189Z,102353.34
2022-11-30T16:07:51.538Z,102348.19
2022-11-30T16:10:26.247Z,102353.31
2022-11-30T16:12:54.935Z,102348.84
2022-11-30T16:15:36.965Z,102360.97
2022-11-30T16:18:20.684Z,102350.13
2022-11-30T16:21:00.121Z,102349.03
2022-11-30T16:23:28.421Z,102348.66
2022-11-30T16:25:55.838Z,102360.94
2022-11-30T16:28:23.315Z,102372.41
2022-11-30T16:30:51.091Z,102359.34
2022-11-30T16:33:25.169Z,102365.91
2022-11-30T16:35:59.450Z,102359.84
2022-11-30T16:38:27.509Z,102357.19
2022-11-30T16:40:55.865Z,102354.88
2022-11-30T16:43:26.152Z,102363.50
2022-11-30T16:45:55.806Z,102367.34
2022-11-30T16:48:22.790Z,102357.78
2022-11-30T16:50:49.700Z,102372.06
2022-11-30T16:53:16.670Z,102367.16
2022-11-30T16:55:44.413Z,102370.81
2022-11-30T16:58:11.376Z,102367.34
2022-11-30T17:00:40.250Z,102381.75
2022-11-30T17:03:19.013Z,102387.75
2022-11-30T17:05:45.957Z,102384.06
2022-11-30T17:08:12.975Z,102387.25
2022-11-30T17:10:40.288Z,102387.59
2022-11-30T17:13:07.261Z,102391.25
2022-11-30T17:15:34.214Z,102391.41
2022-11-30T17:18:01.147Z,102377.59
2022-11-30T17:20:28.352Z,102391.53
2022-11-30T17:22:55.518Z,102410.59
2022-11-30T17:25:24.116Z,102393.00
2022-11-30T17:27:51.905Z,102404.47
2022-11-30T17:30:21.960Z,102395.50
2022-11-30T17:32:50.551Z,102400.41
2022-11-30T17:35:20.484Z,102403.31
2022-11-30T17:37:47.518Z,102404.91
2022-11-30T17:40:17.967Z,102401.59
2022-11-30T17:42:44.876Z,102407.66
2022-11-30T17:45:11.926Z,102403.38
2022-11-30T17:47:38.846Z,102394.97
2022-11-30T17:50:07.583Z,102404.72
2022-11-30T17:52:34.517Z,102400.25
2022-11-30T17:55:01.522Z,102408.50
2022-11-30T17:57:28.430Z,102406.41
2022-11-30T17:59:55.422Z,102403.69
2022-11-30T18:02:22.420Z,102410.44
2022-11-30T18:04:49.638Z,102411.97
2022-11-30T18:07:17.031Z,102406.78
2022-11-30T18:09:43.943Z,102421.66
2022-11-30T18:12:11.611Z,102407.66
2022-11-30T18:14:38.589Z,102415.13
2022-11-30T18:17:05.729Z,102403.63
2022-11-30T18:19:32.705Z,102412.47
2022-11-30T18:21:59.675Z,102412.88
2022-11-30T18:24:26.796Z,102418.47
2022-11-30T18:26:54.101Z,102414.69
2022-11-30T18:29:21.321Z,102414.00
2022-11-30T18:31:51.402Z,102410.69
2022-11-30T18:34:18.401Z,102420.19
2022-11-30T18:36:45.309Z,102417.34
2022-11-30T18:39:12.263Z,102420.56
2022-11-30T18:41:39.333Z,102426.13
2022-11-30T18:44:06.471Z,102431.00
2022-11-30T18:46:33.502Z,102423.00
2022-11-30T18:49:01.642Z,102426.09
2022-11-30T18:51:30.929Z,102427.50
2022-11-30T18:54:06.869Z,102426.53
2022-11-30T18:56:37.089Z,102420.53
2022-11-30T18:59:12.926Z,102426.78
2022-11-30T19:01:40.969Z,102428.31
2022-11-30T19:04:10.357Z,102425.06
2022-11-30T19:06:39.491Z,102427.81
2022-11-30T19:09:13.139Z,102437.44
2022-11-30T19:11:41.323Z,102430.31
2022-11-30T19:14:10.206Z,102429.34
2022-11-30T19:16:37.377Z,102437.25
2022-11-30T19:19:07.715Z,102429.91
2022-11-30T19:21:35.184Z,102426.78
2022-11-30T19:24:02.204Z,102435.00
2022-11-30T19:26:29.499Z,102431.47
2022-11-30T19:28:57.587Z,102441.16
2022-11-30T19:31:25.827Z,102447.38
2022-11-30T19:33:55.387Z,102447.78
2022-11-30T19:36:28.179Z,102445.53
2022-11-30T19:38:56.842Z,102448.00
2022-11-30T19:41:23.990Z,102447.78
2022-11-30T19:44:03.601Z,102457.31
2022-11-30T19:46:32.025Z,102457.66
2022-11-30T19:49:01.348Z,102452.19
2022-11-30T19:51:34.766Z,102460.50
2022-11-30T19:54:02.059Z,102459.44
2022-11-30T19:56:31.685Z,102459.47
2022-11-30T19:59:04.373Z,102453.84
2022-11-30T20:01:32.567Z,102453.44
2022-11-30T20:03:59.667Z,102462.00
2022-11-30T20:06:37.632Z,102462.34
2022-11-30T20:09:07.022Z,102466.31
2022-11-30T20:11:34.480Z,102466.28
2022-11-30T20:14:01.678Z,102470.69
2022-11-30T20:16:29.177Z,102464.25
2022-11-30T20:19:02.668Z,102477.22
2022-11-30T20:21:33.486Z,102468.59
2022-11-30T20:24:04.942Z,102471.53
2022-11-30T20:26:41.564Z,102476.50
2022-11-30T20:29:14.021Z,102468.13
2022-11-30T20:31:41.541Z,102473.84
2022-11-30T20:34:08.801Z,102482.13
2022-11-30T20:36:36.329Z,102479.81
2022-11-30T20:39:05.005Z,102481.44
2022-11-30T20:41:32.046Z,102482.78
2022-11-30T20:43:59.004Z,102487.94
2022-11-30T20:46:36.797Z,102489.69
2022-11-30T20:49:15.512Z,102487.44
2022-11-30T20:51:42.519Z,102485.59
2022-11-30T20:54:10.675Z,102487.22
2022-11-30T20:56:38.922Z,102496.19
2022-11-30T20:59:12.968Z,102492.28
2022-11-30T21:01:45.363Z,102494.66
2022-11-30T21:04:12.767Z,102496.25
2022-11-30T21:06:40.571Z,102478.44
2022-11-30T21:09:07.540Z,102484.56
2022-11-30T21:11:34.638Z,102481.22
2022-11-30T21:14:01.696Z,102481.88
2022-11-30T21:16:29.830Z,102484.78
2022-11-30T21:19:01.521Z,102487.22
2022-11-30T21:21:35.261Z,102486.94
2022-11-30T21:24:08.693Z,102493.03
2022-11-30T21:26:45.477Z,102487.75
2022-11-30T21:29:16.200Z,102486.56
2022-11-30T21:31:44.884Z,102496.34
2022-11-30T21:34:12.434Z,102489.31
2022-11-30T21:36:39.776Z,102496.38
2022-11-30T21:39:07.682Z,102485.28
2022-11-30T21:41:39.761Z,102493.75
2022-11-30T21:44:11.350Z,102499.59
2022-11-30T21:46:38.780Z,102505.00
2022-11-30T21:49:06.822Z,102494.06
2022-11-30T21:51:34.493Z,102499.00
2022-11-30T21:54:05.725Z,102496.66
2022-11-30T21:56:36.615Z,102485.91
2022-11-30T21:59:10.724Z,102497.63
2022-11-30T22:01:41.677Z,102502.38
2022-11-30T22:04:11.094Z,102499.13
2022-11-30T22:06:39.943Z,102510.16
2022-11-30T22:09:13.237Z,102506.13
2022-11-30T22:11:42.689Z,102505.03
2022-11-30T22:14:15.983Z,102501.69
2022-11-30T22:16:43.291Z,102504.41
2022-11-30T22:19:10.417Z,102513.13
2022-11-30T22:21:37.377Z,102512.56
2022-11-30T22:24:09.493Z,102506.47
2022-11-30T22:26:39.680Z,102519.25
2022-11-30T22:29:22.585Z,102506.91
2022-11-30T22:31:52.791Z,102509.28
2022-11-30T22:34:21.046Z,102504.19
2022-11-30T22:36:48.424Z,102500.63
2022-11-30T22:39:20.724Z,102496.91
2022-11-30T22:41:55.055Z,102500.88
2022-11-30T22:44:22.735Z,102506.91
2022-11-30T22:46:49.819Z,102507.19
2022-11-30T22:49:21.080Z,102508.56
2022-11-30T22:51:50.125Z,102509.44
2022-11-30T22:54:18.013Z,102509.88
2022-11-30T22:56:46.555Z,102521.66
2022-11-30T22:59:14.833Z,102526.84
2022-11-30T23:01:50.189Z,102520.03
2022-11-30T23:04:20.984Z,102524.13
2022-11-30T23:06:49.524Z,102515.59
2022-11-30T23:09:20.384Z,102513.69
2022-11-30T23:11:47.900Z,102511.53
2022-11-30T23:14:16.290Z,102520.44
2022-11-30T23:16:44.669Z,102522.53
2022-11-30T23:19:12.861Z,102519.38
2022-11-30T23:21:42.587Z,102514.03
2022-11-30T23:24:16.873Z,102509.94
2022-11-30T23:26:44.042Z,102514.75
2022-11-30T23:29:17.775Z,102516.09
2022-11-30T23:31:46.178Z,102512.38
2022-11-30T23:34:21.478Z,102510.41
2022-11-30T23:36:49.656Z,102514.66
2022-11-30T23:39:19.031Z,102507.78
2022-11-30T23:41:46.308Z,102514.47
2022-11-30T23:44:13.447Z,102497.97
2022-11-30T23:46:40.630Z,102507.06
2022-11-30T23:49:08.275Z,102505.16
2022-11-30T23:51:35.563Z,102495.81
2022-11-30T23:54:02.522Z,102499.38
2022-11-30T23:56:29.435Z,102497.47
2022-11-30T23:58:56.432Z,102503.97
